Time;durP1;ratioP1;P1;durP2;ratioP2;P2;SDS_P1;SDS_P2;PMS_P1;PMS_P2;Temp;Humidity;BMP_temperature;BMP_pressure;BME280_temperature;BME280_humidity;BME280_pressure;Samples;Min_cycle;Max_cycle;Signal;HPM_P1;HPM_P2
2022/07/14 00:00:22;;;;;;;12.45;6.25;;;19.70;77.10;;;;;;5067711;28;20451;-72
2022/07/14 00:02:48;;;;;;;16.35;7.35;;;19.70;77.30;;;;;;5078721;28;20068;-72
2022/07/14 00:05:14;;;;;;;14.55;6.45;;;19.60;77.20;;;;;;5090003;28;20386;-72
2022/07/14 00:07:40;;;;;;;15.60;7.43;;;19.60;77.90;;;;;;5080578;28;20028;-71
2022/07/14 00:10:06;;;;;;;14.38;7.32;;;19.50;78.00;;;;;;5072391;28;20040;-72
2022/07/14 00:12:32;;;;;;;13.63;6.85;;;19.20;78.70;;;;;;5083731;28;20045;-71
2022/07/14 00:14:57;;;;;;;15.82;7.15;;;19.20;79.20;;;;;;5089043;28;20583;-71
2022/07/14 00:17:23;;;;;;;14.60;7.78;;;19.10;79.00;;;;;;5075832;28;20440;-71
2022/07/14 00:19:49;;;;;;;14.63;7.32;;;19.10;79.10;;;;;;5070976;28;20499;-71
2022/07/14 00:22:14;;;;;;;15.80;8.05;;;19.10;78.90;;;;;;5078619;28;20078;-71
2022/07/14 00:24:40;;;;;;;17.33;7.00;;;19.20;79.00;;;;;;5082257;28;20036;-71
2022/07/14 00:27:06;;;;;;;13.25;6.63;;;19.20;78.80;;;;;;5075996;28;20035;-72
2022/07/14 00:29:35;;;;;;;15.43;7.65;;;19.20;79.00;;;;;;5080644;28;20091;-71
2022/07/14 00:32:02;;;;;;;17.67;7.15;;;19.20;78.70;;;;;;5071593;28;20477;-73
2022/07/14 00:34:28;;;;;;;17.30;8.15;;;19.20;78.60;;;;;;5084290;28;20068;-71
2022/07/14 00:36:53;;;;;;;16.83;6.72;;;19.20;78.70;;;;;;5068413;28;20480;-71
2022/07/14 00:39:19;;;;;;;13.45;6.35;;;19.30;78.70;;;;;;5069962;28;20093;-71
2022/07/14 00:41:44;;;;;;;13.63;6.53;;;19.30;78.60;;;;;;5083070;28;20037;-71
2022/07/14 00:44:10;;;;;;;16.80;8.02;;;19.40;78.10;;;;;;5078408;28;20047;-72
2022/07/14 00:46:39;;;;;;;18.60;7.75;;;19.30;79.30;;;;;;5080069;28;20043;-72
2022/07/14 00:49:05;;;;;;;15.75;7.60;;;19.10;80.60;;;;;;5079074;28;20102;-72
2022/07/14 00:51:30;;;;;;;20.77;8.35;;;19.10;81.70;;;;;;5083253;28;20044;-71
2022/07/14 00:53:56;;;;;;;16.83;7.82;;;18.90;81.60;;;;;;5075777;28;20033;-72
2022/07/14 00:56:22;;;;;;;18.63;8.93;;;18.80;82.30;;;;;;5083615;28;20109;-72
2022/07/14 00:58:48;;;;;;;13.27;7.85;;;18.70;83.30;;;;;;5069995;28;20089;-72
2022/07/14 01:01:14;;;;;;;15.93;8.07;;;18.70;83.50;;;;;;5077626;28;20361;-72
2022/07/14 01:03:40;;;;;;;15.80;8.15;;;18.80;83.90;;;;;;5089688;28;20036;-72
2022/07/14 01:06:05;;;;;;;16.52;8.32;;;19.00;84.00;;;;;;5070198;28;20128;-72
2022/07/14 01:08:31;;;;;;;17.65;8.50;;;19.10;84.20;;;;;;5069611;28;20128;-72
2022/07/14 01:10:57;;;;;;;19.35;8.80;;;19.10;83.90;;;;;;5075989;28;20464;-72
2022/07/14 01:13:22;;;;;;;18.27;8.90;;;19.10;84.00;;;;;;5085521;28;20028;-72
2022/07/14 01:15:48;;;;;;;17.30;8.80;;;19.00;83.90;;;;;;5067483;28;20119;-72
2022/07/14 01:18:14;;;;;;;14.07;8.55;;;19.00;83.90;;;;;;5074579;28;20494;-72
2022/07/14 01:20:41;;;;;;;20.70;9.35;;;18.90;84.00;;;;;;5077573;28;20043;-71
2022/07/14 01:23:07;;;;;;;18.70;9.90;;;18.80;84.20;;;;;;5076012;28;20113;-72
2022/07/14 01:25:33;;;;;;;15.38;8.63;;;18.70;84.50;;;;;;5080315;28;20475;-72
2022/07/14 01:27:59;;;;;;;15.85;8.13;;;18.70;84.60;;;;;;5071574;28;20508;-72
2022/07/14 01:30:25;;;;;;;17.70;9.52;;;18.70;84.10;;;;;;5067243;28;20396;-72
2022/07/14 01:32:50;;;;;;;18.88;10.55;;;18.70;83.90;;;;;;5080705;28;20036;-72
2022/07/14 01:35:16;;;;;;;20.45;10.82;;;18.60;84.50;;;;;;5081001;28;20040;-72
2022/07/14 01:37:41;;;;;;;14.93;9.63;;;18.40;84.70;;;;;;5068473;28;20035;-72
2022/07/14 01:40:08;;;;;;;16.75;9.35;;;18.40;85.30;;;;;;5076756;28;20048;-72
2022/07/14 01:42:34;;;;;;;16.02;9.98;;;18.60;85.60;;;;;;5070520;28;20112;-71
2022/07/14 01:45:00;;;;;;;18.42;10.05;;;18.50;85.50;;;;;;5077143;28;20170;-71
2022/07/14 01:47:25;;;;;;;17.80;9.77;;;18.50;85.70;;;;;;5079704;28;20029;-71
2022/07/14 01:49:51;;;;;;;16.50;9.18;;;18.60;85.40;;;;;;5072326;28;20100;-71
2022/07/14 01:52:16;;;;;;;16.65;9.45;;;18.60;85.40;;;;;;5079748;28;20380;-71
2022/07/14 01:54:42;;;;;;;14.25;8.15;;;18.60;84.90;;;;;;5091410;28;20051;-71
2022/07/14 01:57:08;;;;;;;17.75;8.95;;;18.60;84.80;;;;;;5083636;28;20028;-71
2022/07/14 01:59:35;;;;;;;12.80;8.23;;;18.60;84.60;;;;;;5078222;28;20364;-71
2022/07/14 02:02:01;;;;;;;16.98;8.85;;;18.60;84.50;;;;;;5076802;28;20040;-71
2022/07/14 02:04:27;;;;;;;17.33;8.65;;;18.50;84.20;;;;;;5091950;28;20471;-71
2022/07/14 02:06:54;;;;;;;17.38;9.05;;;18.40;84.50;;;;;;5067226;28;20062;-70
2022/07/14 02:09:20;;;;;;;15.68;8.88;;;18.20;84.90;;;;;;5075996;28;20407;-71
2022/07/14 02:14:32;;;;;;;15.75;8.77;;;18.20;85.10;;;;;;5080831;28;20067;-71
2022/07/14 02:16:58;;;;;;;15.70;8.32;;;18.30;85.00;;;;;;5074732;28;20044;-71
2022/07/14 02:19:24;;;;;;;14.95;8.73;;;18.30;85.20;;;;;;5085098;28;20028;-71
2022/07/14 02:21:51;;;;;;;13.75;8.25;;;18.40;85.40;;;;;;5078473;28;20033;-72
2022/07/14 02:24:18;;;;;;;16.45;8.43;;;18.40;85.50;;;;;;5075402;28;20407;-71
2022/07/14 02:26:44;;;;;;;16.70;8.90;;;18.50;85.40;;;;;;5079688;28;20033;-71
2022/07/14 02:29:10;;;;;;;19.63;9.15;;;18.50;84.80;;;;;;5087326;28;20038;-71
2022/07/14 02:31:36;;;;;;;20.67;9.82;;;18.40;84.90;;;;;;5076679;28;20484;-71
2022/07/14 02:34:02;;;;;;;19.33;9.60;;;18.40;84.90;;;;;;5071323;28;20039;-71
2022/07/14 02:36:28;;;;;;;15.48;9.13;;;18.40;85.30;;;;;;5070220;28;20107;-71
2022/07/14 02:38:55;;;;;;;16.77;10.10;;;18.40;85.60;;;;;;5078119;28;20464;-71
2022/07/14 02:41:21;;;;;;;15.32;8.95;;;18.30;85.70;;;;;;5085031;28;20055;-71
2022/07/14 02:43:46;;;;;;;15.55;8.38;;;18.40;85.60;;;;;;5082146;28;20029;-71
2022/07/14 02:46:12;;;;;;;20.00;9.75;;;18.40;85.70;;;;;;5082411;28;20111;-71
2022/07/14 02:48:38;;;;;;;17.55;9.00;;;18.40;85.10;;;;;;5075624;28;20476;-70
2022/07/14 02:51:07;;;;;;;18.25;9.13;;;18.30;85.00;;;;;;5080307;28;20103;-71
2022/07/14 02:53:35;;;;;;;14.73;8.65;;;18.30;85.00;;;;;;5083737;28;20025;-71
2022/07/14 02:56:01;;;;;;;13.75;8.48;;;18.40;85.20;;;;;;5091160;28;20032;-72
2022/07/14 02:58:27;;;;;;;14.75;9.57;;;18.50;85.30;;;;;;5087672;28;20036;-71
2022/07/14 03:00:53;;;;;;;15.00;8.15;;;18.50;85.10;;;;;;5081747;28;20044;-71
2022/07/14 03:03:20;;;;;;;16.50;9.43;;;18.60;84.90;;;;;;5081943;28;20039;-71
2022/07/14 03:05:46;;;;;;;11.75;7.65;;;18.60;84.60;;;;;;5076021;28;20033;-71
2022/07/14 03:08:12;;;;;;;17.30;9.27;;;18.60;84.00;;;;;;5078125;28;20032;-71
2022/07/14 03:10:38;;;;;;;15.32;9.15;;;18.50;83.70;;;;;;5076889;28;20035;-71
2022/07/14 03:13:04;;;;;;;16.88;8.48;;;18.40;83.80;;;;;;5079863;28;20044;-71
2022/07/14 03:15:29;;;;;;;13.90;7.80;;;18.30;83.90;;;;;;5077682;28;20039;-71
2022/07/14 03:17:55;;;;;;;12.60;8.35;;;18.40;84.00;;;;;;5080827;28;20036;-71
2022/07/14 03:20:21;;;;;;;14.55;8.07;;;18.40;84.00;;;;;;5070675;28;20116;-71
2022/07/14 03:22:46;;;;;;;13.32;8.93;;;18.40;83.90;;;;;;5078648;28;20123;-71
2022/07/14 03:25:12;;;;;;;15.25;7.32;;;18.50;83.50;;;;;;5082161;28;20032;-71
2022/07/14 03:27:40;;;;;;;14.30;7.53;;;18.50;83.60;;;;;;5074583;28;20118;-71
2022/07/14 03:30:06;;;;;;;14.63;7.82;;;18.50;83.10;;;;;;5078761;28;20411;-71
2022/07/14 03:32:32;;;;;;;12.15;6.70;;;18.50;82.40;;;;;;5070826;28;20044;-71
2022/07/14 03:34:59;;;;;;;14.70;7.95;;;18.50;82.50;;;;;;5087191;28;20043;-70
2022/07/14 03:37:25;;;;;;;13.98;8.43;;;18.50;82.90;;;;;;5074126;28;20455;-71
2022/07/14 03:39:50;;;;;;;15.32;9.02;;;18.60;83.20;;;;;;5066536;28;20099;-71
2022/07/14 03:42:16;;;;;;;13.63;8.27;;;18.60;83.30;;;;;;5086182;28;20039;-71
2022/07/14 03:44:44;;;;;;;15.52;8.57;;;18.60;83.50;;;;;;5075589;28;20067;-71
2022/07/14 03:47:10;;;;;;;16.55;9.50;;;18.60;83.60;;;;;;5071947;28;20061;-72
2022/07/14 03:49:36;;;;;;;16.70;9.40;;;18.60;83.70;;;;;;5070814;28;20478;-72
2022/07/14 03:52:02;;;;;;;15.23;9.63;;;18.50;83.50;;;;;;5068505;28;20044;-73
2022/07/14 03:54:28;;;;;;;18.92;10.30;;;18.50;83.40;;;;;;5070708;28;20051;-72
2022/07/14 03:56:53;;;;;;;17.15;9.50;;;18.50;83.40;;;;;;5068896;28;20032;-72
2022/07/14 03:59:19;;;;;;;17.27;9.30;;;18.40;83.10;;;;;;5080045;28;20036;-72
2022/07/14 04:01:45;;;;;;;14.55;9.15;;;18.40;82.30;;;;;;5075324;28;20078;-72
2022/07/14 04:04:10;;;;;;;13.50;9.07;;;18.20;83.00;;;;;;5070643;28;20036;-72
2022/07/14 04:06:36;;;;;;;16.55;9.90;;;18.30;83.00;;;;;;5086953;28;20024;-72
2022/07/14 04:09:02;;;;;;;14.35;9.15;;;18.40;82.90;;;;;;5076795;28;20036;-72
2022/07/14 04:11:28;;;;;;;18.67;9.30;;;18.40;82.80;;;;;;5067348;28;20442;-72
2022/07/14 04:13:54;;;;;;;15.80;9.82;;;18.30;82.60;;;;;;5078690;28;20086;-72
2022/07/14 04:16:19;;;;;;;16.27;9.10;;;18.30;82.40;;;;;;5078686;28;20586;-71
2022/07/14 04:18:45;;;;;;;16.25;10.00;;;18.30;82.30;;;;;;5074569;28;20081;-71
2022/07/14 04:21:11;;;;;;;17.83;10.15;;;18.30;82.40;;;;;;5078410;28;20036;-71
2022/07/14 04:23:37;;;;;;;17.67;9.85;;;18.30;81.90;;;;;;5076141;28;20065;-71
2022/07/14 04:26:03;;;;;;;15.85;10.10;;;18.30;82.10;;;;;;5077359;28;20101;-71
2022/07/14 04:28:29;;;;;;;17.80;10.32;;;18.30;82.20;;;;;;5070229;28;20131;-71
2022/07/14 04:30:55;;;;;;;18.73;11.48;;;18.20;82.20;;;;;;5069687;28;20036;-72
2022/07/14 04:33:21;;;;;;;18.33;11.93;;;18.20;82.00;;;;;;5070048;28;20490;-71
2022/07/14 04:35:48;;;;;;;19.73;12.23;;;18.20;82.20;;;;;;5081817;28;20032;-75
2022/07/14 04:38:14;;;;;;;15.93;11.20;;;18.20;82.20;;;;;;5066423;28;20439;-75
2022/07/14 04:40:49;;;;;;;17.80;11.05;;;18.30;82.00;;;;;;5077936;28;20111;-75
2022/07/14 04:43:16;;;;;;;16.42;11.57;;;18.20;81.60;;;;;;5076726;28;20048;-76
2022/07/14 04:45:42;;;;;;;15.77;12.07;;;18.10;81.90;;;;;;5081676;28;20040;-75
2022/07/14 04:48:07;;;;;;;15.82;10.85;;;18.10;82.20;;;;;;5084885;28;20119;-75
2022/07/14 04:53:18;;;;;;;19.65;11.60;;;18.10;81.90;;;;;;5080009;28;20455;-75
2022/07/14 04:55:43;;;;;;;15.85;10.57;;;18.10;81.90;;;;;;5077053;28;20035;-75
2022/07/14 04:58:09;;;;;;;20.48;11.85;;;18.10;82.20;;;;;;5083050;28;20036;-75
2022/07/14 05:00:35;;;;;;;17.65;11.10;;;18.10;81.70;;;;;;5084901;28;20055;-75
2022/07/14 05:03:00;;;;;;;17.70;11.25;;;18.10;82.00;;;;;;5068200;28;20041;-75
2022/07/14 05:05:26;;;;;;;18.90;11.23;;;18.20;81.60;;;;;;5077636;28;20448;-75
2022/07/14 05:07:52;;;;;;;18.75;11.32;;;18.40;81.10;;;;;;5069071;28;20033;-75
2022/07/14 05:10:17;;;;;;;20.35;11.68;;;18.40;80.90;;;;;;5070393;28;20106;-75
2022/07/14 05:12:43;;;;;;;17.55;11.07;;;18.50;80.60;;;;;;5080511;28;20040;-75
2022/07/14 05:15:09;;;;;;;16.88;11.20;;;18.50;80.20;;;;;;5086899;28;20045;-75
2022/07/14 05:17:35;;;;;;;15.13;10.93;;;18.60;80.10;;;;;;5083972;28;20036;-75
2022/07/14 05:20:01;;;;;;;17.85;10.52;;;18.70;80.30;;;;;;5078744;28;20093;-75
2022/07/14 05:22:27;;;;;;;19.27;11.40;;;18.80;78.90;;;;;;5075657;28;20159;-76
2022/07/14 05:24:53;;;;;;;17.13;10.38;;;18.70;79.10;;;;;;5084248;28;20028;-76
2022/07/14 05:27:18;;;;;;;16.20;10.60;;;18.70;79.70;;;;;;5085032;28;20040;-76
2022/07/14 05:29:44;;;;;;;17.60;10.77;;;18.60;79.80;;;;;;5077281;28;20040;-76
2022/07/14 05:32:10;;;;;;;15.23;9.70;;;18.70;79.30;;;;;;5072759;28;20048;-76
2022/07/14 05:34:43;;;;;;;15.48;9.85;;;18.70;79.60;;;;;;5090506;28;20036;-76
2022/07/14 05:37:10;;;;;;;12.65;8.32;;;19.50;78.70;;;;;;5084392;28;20043;-76
2022/07/14 05:39:36;;;;;;;16.60;9.40;;;20.20;76.10;;;;;;5076705;28;20037;-76
2022/07/14 05:42:02;;;;;;;15.80;8.38;;;20.90;72.10;;;;;;5077869;28;20040;-76
2022/07/14 05:44:28;;;;;;;14.57;8.35;;;21.90;71.10;;;;;;5073012;28;20134;-76
2022/07/14 05:46:54;;;;;;;15.98;7.97;;;22.60;66.20;;;;;;5082777;28;20398;-76
2022/07/14 05:49:19;;;;;;;14.57;8.20;;;23.30;65.40;;;;;;5083876;28;20037;-76
2022/07/14 05:51:45;;;;;;;17.90;8.27;;;24.00;61.50;;;;;;5075183;28;20495;-76
2022/07/14 05:54:10;;;;;;;14.95;7.72;;;23.60;61.30;;;;;;5079429;28;20037;-76
2022/07/14 05:56:36;;;;;;;13.38;7.68;;;23.00;63.50;;;;;;5087141;28;20495;-76
2022/07/14 05:59:02;;;;;;;12.38;7.50;;;22.10;65.10;;;;;;5079767;28;20507;-77
2022/07/14 06:01:27;;;;;;;16.42;7.70;;;21.40;69.10;;;;;;5075376;28;20044;-76
2022/07/14 06:03:59;;;;;;;13.57;7.97;;;21.00;69.80;;;;;;5071530;28;20068;-76
2022/07/14 06:06:25;;;;;;;13.80;8.50;;;20.80;70.60;;;;;;5084644;28;20390;-76
2022/07/14 06:08:50;;;;;;;13.52;7.93;;;20.70;71.40;;;;;;5078310;28;20037;-75
2022/07/14 06:11:16;;;;;;;13.27;8.00;;;20.60;71.80;;;;;;5081897;28;20131;-76
2022/07/14 06:13:45;;;;;;;16.40;9.27;;;20.50;71.10;;;;;;5078284;28;20043;-76
2022/07/14 06:16:12;;;;;;;17.52;8.55;;;20.10;72.10;;;;;;5079183;28;20070;-76
2022/07/14 06:18:37;;;;;;;18.27;10.02;;;20.00;73.70;;;;;;5075899;28;20114;-76
2022/07/14 06:21:08;;;;;;;17.38;8.85;;;19.90;73.60;;;;;;5082779;28;20040;-77
2022/07/14 06:23:34;;;;;;;15.52;8.77;;;20.00;73.70;;;;;;5077417;28;20029;-76
2022/07/14 06:25:59;;;;;;;19.77;9.57;;;20.20;73.60;;;;;;5074291;28;20392;-76
2022/07/14 06:28:26;;;;;;;16.48;9.30;;;20.40;72.90;;;;;;5080911;28;20421;-76
2022/07/14 06:30:52;;;;;;;19.08;9.07;;;20.40;73.50;;;;;;5082345;28;20036;-75
2022/07/14 06:33:17;;;;;;;15.50;8.68;;;20.30;72.80;;;;;;5071464;28;20053;-76
2022/07/14 06:35:43;;;;;;;15.88;8.75;;;20.60;73.00;;;;;;5070188;28;20082;-76
2022/07/14 06:38:09;;;;;;;17.80;9.43;;;20.70;71.60;;;;;;5074156;28;20024;-76
2022/07/14 06:40:34;;;;;;;16.90;8.77;;;20.90;71.50;;;;;;5075708;28;20032;-76
2022/07/14 06:43:00;;;;;;;15.75;8.82;;;21.00;70.90;;;;;;5080056;28;20028;-77
2022/07/14 06:45:26;;;;;;;14.82;8.75;;;20.60;71.40;;;;;;5079899;28;20161;-76
2022/07/14 06:47:51;;;;;;;16.92;8.75;;;20.50;72.70;;;;;;5070179;28;20063;-76
2022/07/14 06:50:17;;;;;;;15.93;8.70;;;20.60;72.40;;;;;;5062859;28;20082;-77
2022/07/14 06:52:43;;;;;;;13.98;8.35;;;20.60;72.70;;;;;;5069810;28;20037;-76
2022/07/14 06:55:09;;;;;;;13.98;7.65;;;20.80;71.70;;;;;;5085537;28;20040;-76
2022/07/14 06:57:35;;;;;;;16.42;7.68;;;20.70;71.90;;;;;;5074888;28;20036;-77
2022/07/14 07:00:03;;;;;;;15.55;7.68;;;21.00;71.70;;;;;;5078824;28;20125;-76
2022/07/14 07:02:29;;;;;;;14.90;8.05;;;21.10;71.40;;;;;;5075051;28;20086;-77
2022/07/14 07:07:39;;;;;;;14.77;7.68;;;21.00;71.00;;;;;;5077559;28;20509;-76
2022/07/14 07:10:05;;;;;;;18.77;7.32;;;20.90;70.70;;;;;;5080694;28;20052;-76
2022/07/14 07:12:31;;;;;;;17.30;8.25;;;21.10;70.80;;;;;;5086395;28;20048;-76
2022/07/14 07:14:56;;;;;;;18.23;7.20;;;21.40;69.40;;;;;;5071715;28;20029;-76
2022/07/14 07:17:22;;;;;;;12.77;6.68;;;21.60;69.50;;;;;;5078230;28;20033;-75
2022/07/14 07:19:48;;;;;;;15.10;7.53;;;21.80;68.00;;;;;;5078342;28;20043;-76
2022/07/14 07:22:14;;;;;;;14.80;6.15;;;21.90;67.90;;;;;;5088014;28;20043;-76
2022/07/14 07:24:40;;;;;;;13.85;5.75;;;21.80;67.00;;;;;;5077380;28;20032;-76
2022/07/14 07:27:06;;;;;;;14.95;6.75;;;22.10;67.20;;;;;;5079869;28;20047;-77
2022/07/14 07:29:32;;;;;;;15.88;6.25;;;22.20;66.20;;;;;;5073496;28;20036;-75
2022/07/14 07:31:57;;;;;;;13.20;5.40;;;22.20;65.80;;;;;;5072011;28;20040;-76
2022/07/14 07:34:23;;;;;;;15.98;5.32;;;22.70;65.70;;;;;;5073769;28;20451;-75
2022/07/14 07:36:49;;;;;;;14.45;5.22;;;23.30;65.70;;;;;;5083375;28;20024;-77
2022/07/14 07:39:14;;;;;;;11.40;5.82;;;23.60;62.10;;;;;;5072082;28;20040;-76
2022/07/14 07:41:40;;;;;;;13.25;6.70;;;23.50;60.60;;;;;;5076157;28;20033;-76
2022/07/14 07:44:06;;;;;;;16.50;6.22;;;23.50;61.00;;;;;;5078195;28;20344;-77
2022/07/14 07:46:32;;;;;;;13.63;6.07;;;23.20;63.10;;;;;;5072902;28;20028;-77
2022/07/14 07:48:58;;;;;;;13.55;6.50;;;23.10;63.60;;;;;;5088120;28;20028;-76
2022/07/14 07:51:23;;;;;;;15.82;6.00;;;23.00;62.80;;;;;;5087943;28;20052;-76
2022/07/14 07:53:49;;;;;;;13.75;6.00;;;22.60;64.70;;;;;;5084426;28;20447;-76
2022/07/14 07:56:15;;;;;;;17.05;7.25;;;22.50;64.80;;;;;;5076149;28;20047;-76
2022/07/14 07:58:40;;;;;;;16.10;6.32;;;22.70;65.30;;;;;;5074305;28;20081;-76
2022/07/14 08:01:06;;;;;;;14.00;5.70;;;22.90;63.70;;;;;;5079659;28;20083;-76
2022/07/14 08:03:32;;;;;;;14.80;5.65;;;23.20;62.90;;;;;;5083711;28;20048;-76
2022/07/14 08:05:58;;;;;;;12.10;5.38;;;23.40;61.70;;;;;;5082700;28;20052;-76
2022/07/14 08:08:23;;;;;;;13.98;6.10;;;23.60;60.80;;;;;;5067498;28;20480;-76
2022/07/14 08:10:49;;;;;;;14.32;5.45;;;23.70;59.30;;;;;;5083589;28;20033;-76
2022/07/14 08:13:15;;;;;;;10.75;5.15;;;24.10;58.80;;;;;;5076706;28;20592;-77
2022/07/14 08:15:41;;;;;;;13.05;5.68;;;24.20;58.80;;;;;;5073973;28;20093;-76
2022/07/14 08:18:07;;;;;;;14.50;6.07;;;24.60;58.60;;;;;;5073970;28;20036;-76
2022/07/14 08:20:34;;;;;;;11.52;4.47;;;24.60;57.40;;;;;;5070144;28;20033;-77
2022/07/14 08:22:59;;;;;;;13.52;4.75;;;24.50;57.90;;;;;;5074404;28;20040;-76
2022/07/14 08:25:25;;;;;;;14.20;4.72;;;24.40;58.00;;;;;;5069203;28;20115;-77
2022/07/14 08:27:51;;;;;;;14.85;5.57;;;24.50;58.60;;;;;;5072209;28;20462;-77
2022/07/14 08:30:17;;;;;;;14.40;5.50;;;24.30;60.10;;;;;;5079122;28;20039;-74
2022/07/14 08:32:45;;;;;;;14.05;6.00;;;24.10;60.50;;;;;;5084179;28;20048;-75
2022/07/14 08:35:13;;;;;;;13.43;5.38;;;23.90;60.10;;;;;;5067207;28;20043;-76
2022/07/14 08:37:40;;;;;;;16.05;5.53;;;23.70;60.50;;;;;;5067822;28;20037;-75
2022/07/14 08:40:18;;;;;;;15.77;5.57;;;23.40;61.30;;;;;;5078596;28;20399;-76
2022/07/14 08:42:46;;;;;;;12.18;5.38;;;23.40;60.30;;;;;;5079540;28;20044;-75
2022/07/14 08:45:17;;;;;;;15.13;6.00;;;23.20;61.00;;;;;;5072889;28;20484;-75
2022/07/14 08:47:44;;;;;;;17.13;6.07;;;23.10;61.20;;;;;;5074601;28;20059;-75
2022/07/14 08:50:22;;;;;;;15.85;6.75;;;23.10;60.70;;;;;;5081590;28;20040;-75
2022/07/14 08:52:49;;;;;;;14.98;5.90;;;22.50;60.90;;;;;;5084213;28;20059;-76
2022/07/14 08:55:16;;;;;;;13.45;5.45;;;22.70;61.50;;;;;;5077762;28;20094;-75
2022/07/14 08:57:43;;;;;;;12.63;5.00;;;22.90;61.50;;;;;;5087195;28;20032;-75
2022/07/14 09:00:11;;;;;;;13.55;4.90;;;23.00;60.20;;;;;;5088336;28;20040;-76
2022/07/14 09:02:46;;;;;;;14.35;5.65;;;23.10;59.20;;;;;;5081767;28;20032;-76
2022/07/14 09:05:13;;;;;;;17.67;6.80;;;23.20;59.30;;;;;;5093648;28;20107;-75
2022/07/14 09:07:39;;;;;;;18.48;7.53;;;23.10;60.00;;;;;;5080787;28;20111;-76
2022/07/14 09:10:13;;;;;;;16.02;7.07;;;23.30;60.00;;;;;;5076718;28;20169;-76
2022/07/14 09:12:41;;;;;;;18.80;7.72;;;23.70;60.00;;;;;;5082698;28;20040;-76
2022/07/14 09:18:04;;;;;;;17.45;6.78;;;24.10;58.50;;;;;;5081742;28;20720;-76
2022/07/14 09:20:32;;;;;;;19.55;9.27;;;24.10;58.30;;;;;;5070632;28;20473;-75
2022/07/14 09:23:04;;;;;;;16.35;8.05;;;24.10;58.00;;;;;;5082470;28;20028;-76
2022/07/14 09:25:32;;;;;;;14.73;7.43;;;23.60;59.90;;;;;;5085065;28;20032;-76
2022/07/14 09:27:57;;;;;;;17.95;6.88;;;23.80;55.30;;;;;;5083632;28;20071;-75
2022/07/14 09:30:25;;;;;;;14.77;7.95;;;23.90;57.30;;;;;;5085300;28;20459;-75
2022/07/14 09:32:58;;;;;;;19.30;8.35;;;24.10;54.60;;;;;;5074368;28;20040;-76
2022/07/14 09:35:34;;;;;;;19.45;8.98;;;24.00;55.10;;;;;;5076481;28;20040;-76
2022/07/14 09:38:12;;;;;;;12.80;6.35;;;24.30;55.80;;;;;;5077371;28;20040;-76
2022/07/14 09:40:39;;;;;;;19.58;8.10;;;24.70;53.70;;;;;;5089255;28;20120;-76
2022/07/14 09:43:08;;;;;;;18.88;7.90;;;24.60;52.40;;;;;;5073293;28;20039;-76
2022/07/14 09:45:36;;;;;;;16.58;7.72;;;24.50;52.80;;;;;;5085853;28;20056;-75
2022/07/14 09:48:08;;;;;;;17.60;9.07;;;24.80;54.40;;;;;;5073267;28;20036;-76
2022/07/14 09:50:41;;;;;;;17.80;8.35;;;25.10;53.00;;;;;;5083421;28;20514;-76
2022/07/14 09:53:13;;;;;;;14.40;8.38;;;25.40;49.80;;;;;;5084930;28;20097;-76
2022/07/14 09:55:42;;;;;;;18.15;9.45;;;24.90;50.00;;;;;;5084192;28;20020;-75
2022/07/14 09:58:08;;;;;;;19.30;9.70;;;25.00;50.40;;;;;;5074710;28;20153;-75
2022/07/14 10:00:35;;;;;;;22.42;9.02;;;25.00;51.10;;;;;;5079030;28;20040;-75
2022/07/14 10:03:03;;;;;;;17.02;7.97;;;25.30;50.70;;;;;;5081138;28;20105;-76
2022/07/14 10:05:31;;;;;;;13.45;6.80;;;25.40;50.60;;;;;;5083906;28;20067;-76
2022/07/14 10:07:58;;;;;;;16.95;6.75;;;25.30;51.10;;;;;;5079814;28;20041;-76
2022/07/14 10:10:25;;;;;;;17.05;6.53;;;25.50;51.00;;;;;;5090464;28;20503;-75
2022/07/14 10:12:52;;;;;;;12.35;5.30;;;25.60;49.10;;;;;;5076238;28;20037;-75
2022/07/14 10:15:18;;;;;;;11.88;5.00;;;25.70;48.10;;;;;;5072573;28;20036;-75
2022/07/14 10:17:43;;;;;;;14.55;4.43;;;25.90;46.10;;;;;;5078588;28;20384;-76
2022/07/14 10:20:12;;;;;;;14.60;4.03;;;26.00;46.20;;;;;;5084656;28;20056;-76
2022/07/14 10:22:39;;;;;;;11.85;4.30;;;26.10;46.40;;;;;;5078657;28;20028;-76
2022/07/14 10:25:07;;;;;;;12.07;4.65;;;26.20;45.30;;;;;;5081843;28;20420;-76
2022/07/14 10:27:33;;;;;;;11.95;4.20;;;26.10;44.70;;;;;;5063165;28;20135;-75
2022/07/14 10:29:59;;;;;;;14.00;3.83;;;25.50;45.00;;;;;;5078194;28;20071;-75
2022/07/14 10:32:52;;;;;;;13.35;4.60;;;25.30;46.10;;;;;;5079473;28;20468;-75
2022/07/14 10:35:37;;;;;;;11.85;3.60;;;24.80;46.20;;;;;;5080497;28;20075;-76
2022/07/14 10:38:05;;;;;;;11.85;3.67;;;24.90;47.60;;;;;;5065918;28;20033;-76
2022/07/14 10:40:48;;;;;;;12.52;3.90;;;25.10;47.50;;;;;;5088447;28;20028;-76
2022/07/14 10:43:19;;;;;;;8.63;3.17;;;25.60;46.40;;;;;;5078082;28;20122;-76
2022/07/14 10:45:56;;;;;;;12.13;4.22;;;25.60;45.00;;;;;;5076496;28;20494;-76
2022/07/14 10:48:31;;;;;;;8.20;3.42;;;25.70;46.30;;;;;;5086190;28;20052;-76
2022/07/14 10:51:17;;;;;;;9.95;4.05;;;25.60;43.90;;;;;;5090848;28;20392;-76
2022/07/14 10:54:12;;;;;;;9.82;3.88;;;25.80;45.10;;;;;;5063750;28;20086;-76
2022/07/14 10:56:40;;;;;;;7.80;2.63;;;26.00;42.60;;;;;;5066286;28;20043;-76
2022/07/14 10:59:30;;;;;;;7.22;2.38;;;25.70;39.90;;;;;;5075506;28;20121;-76
2022/07/14 11:02:14;;;;;;;10.18;3.55;;;26.00;42.10;;;;;;5066899;28;20043;-76
2022/07/14 11:07:46;;;;;;;8.73;2.80;;;26.10;39.60;;;;;;5070621;28;20066;-76
2022/07/14 11:10:17;;;;;;;10.80;2.83;;;26.20;41.10;;;;;;5077335;28;20513;-76
2022/07/14 11:13:06;;;;;;;10.07;2.80;;;26.10;39.70;;;;;;5081198;28;20161;-75
2022/07/14 11:15:45;;;;;;;7.05;1.90;;;26.50;37.50;;;;;;5062769;28;20037;-76
2022/07/14 11:18:26;;;;;;;8.10;2.30;;;26.50;37.50;;;;;;5062780;28;20036;-76
2022/07/14 11:21:03;;;;;;;6.57;2.10;;;27.10;38.20;;;;;;5079344;28;20040;-76
2022/07/14 11:23:52;;;;;;;7.60;2.22;;;27.10;35.30;;;;;;5090317;28;20123;-77
2022/07/14 11:26:38;;;;;;;5.70;1.92;;;26.70;37.80;;;;;;5065981;28;20035;-76
2022/07/14 11:29:05;;;;;;;7.40;2.25;;;26.60;39.00;;;;;;5078959;28;20135;-77
2022/07/14 11:31:44;;;;;;;6.82;1.67;;;26.80;40.10;;;;;;5076986;28;20480;-76
2022/07/14 11:37:10;;;;;;;7.88;2.40;;;26.80;38.20;;;;;;5073044;28;20392;-76
2022/07/14 11:39:36;;;;;;;8.82;1.95;;;26.70;37.60;;;;;;5080637;28;20028;-76
2022/07/14 11:42:16;;;;;;;7.10;1.90;;;27.10;38.60;;;;;;5088432;28;20072;-77
2022/07/14 11:44:43;;;;;;;6.50;1.55;;;27.20;39.30;;;;;;5071344;28;20040;-76
2022/07/14 11:47:31;;;;;;;7.10;1.73;;;27.10;35.50;;;;;;5069924;28;20033;-76
2022/07/14 11:49:59;;;;;;;7.82;2.10;;;27.20;38.50;;;;;;5078713;28;20044;-76
2022/07/14 11:52:31;;;;;;;6.90;2.25;;;26.90;38.90;;;;;;5087203;28;20040;-76
2022/07/14 11:54:58;;;;;;;8.25;2.25;;;26.60;38.70;;;;;;5074555;28;20060;-76
2022/07/14 11:57:25;;;;;;;7.28;2.00;;;26.20;39.80;;;;;;5078022;28;20310;-76
2022/07/14 11:59:51;;;;;;;6.47;2.20;;;26.40;38.80;;;;;;5078404;28;20503;-76
2022/07/14 12:02:18;;;;;;;9.07;2.47;;;26.80;39.90;;;;;;5076063;28;20036;-76
2022/07/14 12:04:56;;;;;;;7.55;2.33;;;27.30;38.50;;;;;;5084655;28;20484;-77
2022/07/14 12:07:24;;;;;;;5.63;2.00;;;27.50;38.50;;;;;;5085934;28;20050;-76
2022/07/14 12:09:50;;;;;;;6.30;2.10;;;27.60;37.90;;;;;;5075850;28;20040;-76
2022/07/14 12:12:18;;;;;;;5.82;2.13;;;27.50;38.40;;;;;;5077802;28;20044;-76
2022/07/14 12:14:49;;;;;;;5.55;1.92;;;27.30;38.50;;;;;;5085306;28;20030;-76
2022/07/14 12:17:16;;;;;;;7.53;2.45;;;27.20;38.10;;;;;;5081853;28;20038;-76
2022/07/14 12:19:43;;;;;;;9.20;2.40;;;26.60;40.00;;;;;;5082272;28;20447;-76
2022/07/14 12:22:09;;;;;;;6.38;2.13;;;26.50;40.10;;;;;;5068485;28;20047;-76
2022/07/14 12:24:35;;;;;;;5.65;2.40;;;26.50;40.20;;;;;;5083829;28;20115;-77
2022/07/14 12:27:07;;;;;;;5.95;2.33;;;26.80;40.30;;;;;;5080659;28;20462;-77
2022/07/14 12:29:34;;;;;;;9.02;2.70;;;27.10;38.90;;;;;;5070010;28;20029;-76
2022/07/14 12:32:00;;;;;;;8.38;2.60;;;27.00;40.70;;;;;;5069319;28;20045;-77
2022/07/14 12:34:27;;;;;;;7.68;2.30;;;26.90;40.40;;;;;;5087796;28;20035;-77
2022/07/14 12:36:59;;;;;;;7.13;2.20;;;26.90;40.20;;;;;;5072411;28;20029;-76
2022/07/14 12:39:25;;;;;;;8.48;2.90;;;26.80;40.30;;;;;;5067657;28;20098;-76
2022/07/14 12:41:52;;;;;;;6.32;2.22;;;26.60;39.80;;;;;;5076864;28;20135;-76
2022/07/14 12:44:17;;;;;;;7.82;2.00;;;26.60;40.80;;;;;;5078127;28;20032;-76
2022/07/14 12:46:43;;;;;;;7.13;2.17;;;26.70;40.80;;;;;;5073868;28;20028;-77
2022/07/14 12:49:09;;;;;;;5.43;2.05;;;26.50;40.10;;;;;;5078073;28;20043;-77
2022/07/14 12:51:40;;;;;;;5.55;2.20;;;26.60;39.70;;;;;;5087546;28;20119;-76
2022/07/14 12:54:12;;;;;;;7.65;2.53;;;26.80;39.40;;;;;;5087853;28;20040;-77
2022/07/14 12:56:43;;;;;;;7.20;2.28;;;26.70;40.10;;;;;;5080235;28;20043;-76